CST,Max TemperatureF,Mean TemperatureF,Min TemperatureF,Max Dew PointF,MeanDew PointF,Min DewpointF,Max Humidity, Mean Humidity, Min Humidity, Max Sea Level PressureIn, Mean Sea Level PressureIn, Min Sea Level PressureIn, Max VisibilityMiles, Mean VisibilityMiles, Min VisibilityMiles, Max Wind SpeedMPH, Mean Wind SpeedMPH, Max Gust SpeedMPH,PrecipitationIn, CloudCover, Events, WindDirDegrees
2012-11-1,48,40,33,37,31,25,93,68,43,30.06,30.00,29.96,10,10,4,14,5,20,0.00,1,,19
2012-11-2,42,36,30,30,27,25,86,68,53,30.11,30.04,29.98,10,10,10,12,8,16,0.00,3,,92
2012-11-3,48,38,28,34,30,25,86,70,50,30.21,30.16,30.11,10,10,7,6,2,,0.00,4,,49
2012-11-4,51,44,37,43,36,32,93,78,58,30.17,30.10,30.04,10,9,4,8,2,,0.11,7,Rain,82
2012-11-5,41,38,35,39,35,32,100,92,81,30.17,30.10,29.95,10,7,2,13,7,16,0.02,8,Rain,323
2012-11-6,50,42,32,36,34,28,100,76,54,30.05,29.95,29.86,10,10,7,29,16,38,0.00,4,Rain,303
2012-11-7,48,37,26,36,29,25,100,74,46,30.14,30.07,29.96,10,10,10,10,5,,0.00,0,,216
2012-11-8,57,46,35,36,32,30,93,66,36,29.96,29.91,29.86,10,9,3,21,9,26,0.00,0,,145
2012-11-9,57,45,33,45,38,32,100,81,58,29.92,29.83,29.68,10,7,0,16,10,23,0.00,4,Fog,80
2012-11-10,59,47,33,52,45,34,100,83,59,29.67,29.55,29.46,10,8,3,28,12,36,0.39,2,Rain,194
2012-11-11,33,25,17,30,17,12,100,76,59,30.06,29.89,29.65,10,10,10,30,22,34,0.00,3,,299
2012-11-12,32,24,17,16,13,10,86,69,44,30.31,30.17,30.05,10,10,10,25,15,32,0.00,0,,280
2012-11-13,46,32,19,28,20,14,86,65,32,30.31,30.26,30.20,10,10,10,15,5,,0.00,2,,178
2012-11-14,50,38,26,30,27,25,93,68,40,30.27,30.21,30.13,10,10,10,8,3,,0.00,1,,191
2012-11-15,51,40,28,34,28,19,93,69,47,30.46,30.29,30.13,10,10,10,12,8,16,0.00,0,,327
2012-11-16,48,34,19,32,23,16,93,68,43,30.46,30.36,30.24,10,10,10,13,6,17,0.00,0,,139
2012-11-17,57,46,35,36,33,30,87,65,41,30.26,30.16,30.09,10,10,10,22,11,31,0.00,0,,171
2012-11-18,59,48,37,36,32,28,76,58,34,30.10,30.05,30.00,10,10,10,20,11,25,0.00,0,,170
2012-11-19,55,44,33,37,36,32,93,73,51,30.13,30.02,29.96,10,10,7,15,7,16,0.00,0,,257
2012-11-20,59,42,24,36,29,19,100,62,22,30.20,30.12,30.03,10,9,2,13,6,,0.05,0,,187
2012-11-21,71,55,39,43,37,32,81,56,25,30.03,29.89,29.73,10,10,10,28,13,32,0.00,0,,196
2012-11-22,53,42,30,45,33,16,81,68,52,30.21,29.88,29.67,10,10,10,31,14,44,0.00,2,,285
2012-11-23,28,22,17,18,11,9,74,61,47,30.44,30.37,30.22,10,10,10,30,19,40,0.00,3,,320
2012-11-24,39,27,15,21,14,9,80,57,33,30.34,30.04,29.82,10,10,10,22,6,28,0.00,1,,182
2012-11-25,37,32,26,27,23,21,86,67,52,30.17,30.00,29.84,10,10,10,12,8,,0.00,4,,343
2012-11-26,30,20,10,21,11,7,85,65,47,30.44,30.35,30.18,10,10,10,14,6,18,0.00,3,,352
2012-11-27,39,26,12,23,17,7,86,72,49,30.36,30.21,30.10,10,10,7,22,8,28,0.00,0,,230
2012-11-28,42,28,15,27,20,12,93,69,42,30.33,30.20,30.02,10,10,7,18,5,23,0.00,0,,182
2012-11-29,50,37,24,28,26,19,86,68,43,30.03,29.97,29.91,10,10,7,9,4,,0.00,0,,100
2012-11-30,44,32,21,32,27,19,93,75,57,30.10,30.01,29.93,10,7,3,10,6,,0.00,0,,72